Time;durP1;ratioP1;P1;durP2;ratioP2;P2;SDS_P1;SDS_P2;PMS_P1;PMS_P2;Temp;Humidity;BMP_temperature;BMP_pressure;BME280_temperature;BME280_humidity;BME280_pressure;Samples;Min_cycle;Max_cycle;Signal;HPM_P1;HPM_P2
2023/10/13 00:01:06;;;;;;;35.63;24.17;;;;;;;;;;10136537;28;20045;-68
2023/10/13 00:06:02;;;;;;;38.65;24.48;;;;;;;;;;10135298;28;20393;-69
2023/10/13 00:11:02;;;;;;;33.60;23.98;;;;;;;;;;10138332;28;20052;-68
2023/10/13 00:15:57;;;;;;;38.80;25.60;;;;;;;;;;10143017;28;20067;-69
2023/10/13 00:20:50;;;;;;;33.40;22.13;;;;;;;;;;10145020;28;20501;-66
2023/10/13 00:25:49;;;;;;;29.48;20.40;;;;;;;;;;10143842;28;20049;-68
2023/10/13 00:30:41;;;;;;;27.60;22.10;;;;;;;;;;10143905;28;20056;-66
2023/10/13 00:35:37;;;;;;;27.55;19.25;;;;;;;;;;10144484;28;20039;-69
2023/10/13 00:45:24;;;;;;;26.88;19.63;;;;;;;;;;10143103;28;20072;-68
2023/10/13 00:50:17;;;;;;;32.47;19.98;;;;;;;;;;10106778;28;20048;-68
2023/10/13 00:55:11;;;;;;;30.25;19.80;;;;;;;;;;10143373;28;20040;-68
2023/10/13 01:00:18;;;;;;;25.73;20.13;;;;;;;;;;10105876;28;20385;-69
2023/10/13 01:05:11;;;;;;;35.33;20.45;;;;;;;;;;10141949;28;20057;-68
2023/10/13 01:10:05;;;;;;;24.70;18.90;;;;;;;;;;10139416;28;20040;-68
2023/10/13 01:14:57;;;;;;;25.13;17.65;;;;;;;;;;10125981;28;20124;-68
2023/10/13 01:19:49;;;;;;;29.45;21.30;;;;;;;;;;10142080;28;20841;-67
2023/10/13 01:24:41;;;;;;;25.20;17.65;;;;;;;;;;10124758;28;20048;-68
2023/10/13 01:29:34;;;;;;;27.48;18.63;;;;;;;;;;10142220;28;20131;-69
2023/10/13 01:34:25;;;;;;;26.30;18.65;;;;;;;;;;10143810;28;20473;-67
2023/10/13 01:39:19;;;;;;;23.52;15.55;;;;;;;;;;10140709;28;20109;-68
2023/10/13 01:44:11;;;;;;;22.85;17.10;;;;;;;;;;10143456;28;20087;-69
2023/10/13 01:49:03;;;;;;;21.42;14.70;;;;;;;;;;10140658;28;20050;-69
2023/10/13 01:53:58;;;;;;;28.20;22.00;;;;;;;;;;10125656;28;20040;-68
2023/10/13 01:58:51;;;;;;;38.13;25.55;;;;;;;;;;10147364;28;20445;-67
2023/10/13 02:03:46;;;;;;;39.65;26.42;;;;;;;;;;10139072;28;20057;-68
2023/10/13 02:08:43;;;;;;;37.20;26.38;;;;;;;;;;10122004;28;20381;-68
2023/10/13 02:13:41;;;;;;;40.67;27.60;;;;;;;;;;10122949;28;20059;-69
2023/10/13 02:18:41;;;;;;;37.28;28.05;;;;;;;;;;10122978;28;20482;-69
2023/10/13 02:23:33;;;;;;;37.70;27.40;;;;;;;;;;10139813;28;20056;-69
2023/10/13 02:28:28;;;;;;;70.65;35.97;;;;;;;;;;10121964;28;20391;-68
2023/10/13 02:33:29;;;;;;;39.33;28.67;;;;;;;;;;10139678;28;20052;-68
2023/10/13 02:43:34;;;;;;;46.33;27.35;;;;;;;;;;10139271;28;20052;-68
2023/10/13 02:48:30;;;;;;;37.38;27.38;;;;;;;;;;10140497;28;20041;-66
2023/10/13 02:53:22;;;;;;;39.50;28.98;;;;;;;;;;10128081;28;20048;-68
2023/10/13 02:58:14;;;;;;;33.38;25.67;;;;;;;;;;10139080;28;20041;-68
2023/10/13 03:03:07;;;;;;;27.45;21.17;;;;;;;;;;10120711;28;20493;-68
2023/10/13 03:08:03;;;;;;;33.10;25.00;;;;;;;;;;10137863;28;20124;-68
2023/10/13 03:12:56;;;;;;;33.95;26.52;;;;;;;;;;10139316;28;20439;-70
2023/10/13 03:17:48;;;;;;;31.13;23.42;;;;;;;;;;10119510;28;20041;-69
2023/10/13 03:22:41;;;;;;;33.55;21.38;;;;;;;;;;10121420;28;20044;-69
2023/10/13 03:32:55;;;;;;;25.00;20.83;;;;;;;;;;10117739;28;20154;-70
2023/10/13 03:37:47;;;;;;;28.80;17.65;;;;;;;;;;10138969;28;20466;-70
2023/10/13 03:42:40;;;;;;;18.42;14.05;;;;;;;;;;10139210;28;20492;-69
2023/10/13 03:47:32;;;;;;;28.45;16.40;;;;;;;;;;10138328;28;20040;-67
2023/10/13 03:52:25;;;;;;;21.50;16.58;;;;;;;;;;10138432;28;20047;-70
2023/10/13 03:57:17;;;;;;;22.73;15.55;;;;;;;;;;10136449;28;20494;-66
2023/10/13 04:02:17;;;;;;;21.60;14.32;;;;;;;;;;10138836;28;20385;-70
2023/10/13 04:17:13;;;;;;;26.65;16.50;;;;;;;;;;10139535;28;20059;-69
2023/10/13 04:22:14;;;;;;;24.02;17.50;;;;;;;;;;10136858;28;20376;-69
2023/10/13 04:32:13;;;;;;;25.40;15.77;;;;;;;;;;10135753;28;20462;-69
2023/10/13 04:37:28;;;;;;;23.45;16.63;;;;;;;;;;10136351;28;20090;-69
2023/10/13 04:42:39;;;;;;;38.60;22.17;;;;;;;;;;10134638;28;20043;-69
2023/10/13 04:47:41;;;;;;;39.10;24.73;;;;;;;;;;10136878;28;20417;-67
2023/10/13 04:53:00;;;;;;;34.90;21.38;;;;;;;;;;10138952;28;20046;-70
2023/10/13 04:58:00;;;;;;;20.13;16.33;;;;;;;;;;10138822;28;20212;-68
2023/10/13 06:30:08;;;;;;;16.98;13.88;;;;;;;;;;10143383;28;20043;-68
2023/10/13 06:35:22;;;;;;;21.67;13.40;;;;;;;;;;10144056;28;20036;-69
2023/10/13 06:40:33;;;;;;;18.45;14.23;;;;;;;;;;10138338;28;20044;-69
2023/10/13 06:45:28;;;;;;;26.75;14.52;;;;;;;;;;10139291;28;20040;-70
2023/10/13 06:50:24;;;;;;;17.95;13.77;;;;;;;;;;10140426;28;20032;-70
2023/10/13 06:55:27;;;;;;;18.20;12.68;;;;;;;;;;10136794;28;20379;-74
2023/10/13 07:00:27;;;;;;;17.08;13.40;;;;;;;;;;10135709;28;20043;-73
2023/10/13 07:05:19;;;;;;;16.60;12.85;;;;;;;;;;10136764;28;20185;-72
2023/10/13 07:10:12;;;;;;;19.23;12.45;;;;;;;;;;10138261;28;20048;-70
2023/10/13 07:20:16;;;;;;;16.15;11.93;;;;;;;;;;10139839;28;20151;-71
2023/10/13 07:25:23;;;;;;;13.00;11.68;;;;;;;;;;10137106;28;20378;-71
2023/10/13 07:30:19;;;;;;;23.02;11.60;;;;;;;;;;10136944;28;20040;-73
2023/10/13 07:35:17;;;;;;;25.63;12.65;;;;;;;;;;10136417;28;20127;-73
2023/10/13 07:40:34;;;;;;;16.20;13.20;;;;;;;;;;10138583;28;20169;-72
2023/10/13 07:45:35;;;;;;;17.65;12.50;;;;;;;;;;10137680;28;20134;-71
2023/10/13 07:50:33;;;;;;;21.27;13.15;;;;;;;;;;10136267;28;20032;-72
2023/10/13 07:55:25;;;;;;;17.73;14.02;;;;;;;;;;10136385;28;20135;-73
2023/10/13 08:01:06;;;;;;;14.45;11.82;;;;;;;;;;10137565;28;20486;-73
2023/10/13 08:05:55;;;;;;;15.52;12.15;;;;;;;;;;10129703;28;20082;-72
2023/10/13 08:10:45;;;;;;;18.20;14.23;;;;;;;;;;10136881;28;20044;-73
2023/10/13 08:15:40;;;;;;;22.17;12.15;;;;;;;;;;10135273;28;20131;-73
2023/10/13 08:20:38;;;;;;;17.38;12.82;;;;;;;;;;10137659;28;20102;-71
2023/10/13 08:30:52;;;;;;;16.33;13.57;;;;;;;;;;10135198;28;20317;-73
2023/10/13 08:46:08;;;;;;;15.13;13.50;;;;;;;;;;10143758;28;20040;-72
2023/10/13 08:51:04;;;;;;;21.08;15.73;;;;;;;;;;10144167;28;20482;-70
2023/10/13 09:01:11;;;;;;;19.88;16.42;;;;;;;;;;10142898;28;20045;-72
2023/10/13 09:06:06;;;;;;;20.85;16.17;;;;;;;;;;10127409;28;20340;-72
2023/10/13 09:11:10;;;;;;;27.77;14.93;;;;;;;;;;10143964;28;20070;-71
2023/10/13 09:16:51;;;;;;;19.73;15.82;;;;;;;;;;10140214;28;20524;-71
2023/10/13 09:26:36;;;;;;;16.90;14.32;;;;;;;;;;10139056;28;20052;-70
2023/10/13 09:31:32;;;;;;;28.13;15.32;;;;;;;;;;10140603;28;20451;-71
2023/10/13 09:36:25;;;;;;;16.05;13.15;;;;;;;;;;10143020;28;20044;-71
2023/10/13 09:41:18;;;;;;;19.92;14.07;;;;;;;;;;10141464;28;20082;-70
2023/10/13 09:46:17;;;;;;;22.48;16.58;;;;;;;;;;10140630;28;20102;-70
2023/10/13 09:51:22;;;;;;;22.38;17.15;;;;;;;;;;10124262;28;20044;-70
2023/10/13 09:56:19;;;;;;;22.77;14.25;;;;;;;;;;10140758;28;20041;-69
2023/10/13 10:01:11;;;;;;;21.05;16.27;;;;;;;;;;10124871;28;20047;-69
2023/10/13 10:06:03;;;;;;;21.33;15.23;;;;;;;;;;10137823;28;20470;-71
2023/10/13 10:11:40;;;;;;;20.73;14.60;;;;;;;;;;10141031;28;20148;-71
2023/10/13 10:16:51;;;;;;;24.27;16.30;;;;;;;;;;10070005;28;20040;-70
2023/10/13 10:21:43;;;;;;;18.60;14.55;;;;;;;;;;10124444;28;20375;-71
2023/10/13 10:26:35;;;;;;;27.92;17.40;;;;;;;;;;10138681;28;20040;-70
2023/10/13 10:31:42;;;;;;;30.15;18.25;;;;;;;;;;10139284;28;20055;-70
2023/10/13 10:36:34;;;;;;;23.65;15.50;;;;;;;;;;10141060;28;20044;-71
2023/10/13 10:46:42;;;;;;;25.33;18.40;;;;;;;;;;10139752;28;20478;-70
2023/10/13 10:51:43;;;;;;;25.33;16.20;;;;;;;;;;10137841;28;20062;-70
2023/10/13 10:56:36;;;;;;;28.05;19.58;;;;;;;;;;10137927;28;20743;-73
2023/10/13 11:01:33;;;;;;;21.45;17.08;;;;;;;;;;10142806;28;20493;-70
2023/10/13 11:06:26;;;;;;;23.75;19.05;;;;;;;;;;10142151;28;20059;-71
2023/10/13 11:11:35;;;;;;;27.52;20.02;;;;;;;;;;10140524;28;20124;-70
2023/10/13 11:16:34;;;;;;;20.63;16.10;;;;;;;;;;10142019;28;20153;-71
2023/10/13 11:21:30;;;;;;;19.92;15.23;;;;;;;;;;10142321;28;20044;-72
2023/10/13 11:26:33;;;;;;;22.75;14.32;;;;;;;;;;10140615;28;20424;-72
2023/10/13 11:31:25;;;;;;;18.55;14.30;;;;;;;;;;10140164;28;20417;-73
2023/10/13 11:36:21;;;;;;;23.02;13.90;;;;;;;;;;10141861;28;20070;-71
2023/10/13 11:41:16;;;;;;;20.52;15.00;;;;;;;;;;10138648;28;20319;-71
2023/10/13 11:46:15;;;;;;;12.73;11.23;;;;;;;;;;10140803;28;20450;-71
2023/10/13 11:51:18;;;;;;;18.10;11.63;;;;;;;;;;10139764;28;20090;-71
2023/10/13 11:56:10;;;;;;;13.38;11.43;;;;;;;;;;10140185;28;20036;-71
2023/10/13 12:11:30;;;;;;;19.88;13.15;;;;;;;;;;10128176;28;20043;-74
2023/10/13 12:16:22;;;;;;;18.35;12.98;;;;;;;;;;10153433;28;20048;-71
2023/10/13 12:21:19;;;;;;;17.08;13.48;;;;;;;;;;10151096;28;20396;-70
2023/10/13 12:26:19;;;;;;;33.50;14.27;;;;;;;;;;10151761;28;20045;-71
2023/10/13 12:31:11;;;;;;;17.15;12.35;;;;;;;;;;10158831;28;20059;-71
2023/10/13 12:56:29;;;;;;;17.30;13.45;;;;;;;;;;10154964;28;20046;-70
2023/10/13 13:01:24;;;;;;;22.60;14.55;;;;;;;;;;10152795;28;20080;-71
2023/10/13 13:06:25;;;;;;;16.80;12.43;;;;;;;;;;10151355;28;20052;-73
2023/10/13 13:11:17;;;;;;;18.20;13.13;;;;;;;;;;10153112;28;20139;-71
2023/10/13 13:16:09;;;;;;;20.90;13.43;;;;;;;;;;10152050;28;20074;-72
2023/10/13 13:21:06;;;;;;;21.17;14.38;;;;;;;;;;10148005;28;20140;-71
2023/10/13 13:25:58;;;;;;;20.85;13.70;;;;;;;;;;10144185;28;20131;-69
2023/10/13 13:30:54;;;;;;;15.52;12.20;;;;;;;;;;10144022;28;20091;-71
2023/10/13 13:35:48;;;;;;;17.65;10.95;;;;;;;;;;10144545;28;20387;-69
2023/10/13 13:40:44;;;;;;;17.77;12.95;;;;;;;;;;10145338;28;20040;-70
2023/10/13 13:45:41;;;;;;;20.52;11.98;;;;;;;;;;10144178;28;20053;-70
2023/10/13 13:50:41;;;;;;;15.02;10.52;;;;;;;;;;10143011;28;20178;-71
2023/10/13 13:55:33;;;;;;;23.42;12.43;;;;;;;;;;10142516;28;20478;-71
2023/10/13 14:00:38;;;;;;;17.73;11.93;;;;;;;;;;10143734;28;20045;-71
2023/10/13 14:05:30;;;;;;;19.05;12.40;;;;;;;;;;10144926;28;20127;-71
2023/10/13 14:10:31;;;;;;;19.60;12.50;;;;;;;;;;10144002;28;20068;-71
2023/10/13 14:15:26;;;;;;;18.50;11.32;;;;;;;;;;10143783;28;20044;-72
2023/10/13 14:20:18;;;;;;;38.08;13.82;;;;;;;;;;10141601;28;20048;-72
2023/10/13 14:25:14;;;;;;;17.02;12.18;;;;;;;;;;10143148;28;20908;-71
2023/10/13 14:30:07;;;;;;;21.02;14.20;;;;;;;;;;10141178;28;20083;-72
2023/10/13 14:35:00;;;;;;;19.58;11.38;;;;;;;;;;10141563;28;20047;-71
2023/10/13 14:39:59;;;;;;;25.52;13.02;;;;;;;;;;10143146;28;20051;-71
2023/10/13 14:44:55;;;;;;;20.65;15.02;;;;;;;;;;10140269;28;20060;-72
2023/10/13 14:49:47;;;;;;;20.88;11.65;;;;;;;;;;10120144;28;20143;-72
2023/10/13 14:54:39;;;;;;;16.25;12.07;;;;;;;;;;10138127;28;20470;-70
2023/10/13 14:59:38;;;;;;;17.85;12.70;;;;;;;;;;10136230;28;20045;-71
2023/10/13 15:04:32;;;;;;;24.30;12.68;;;;;;;;;;10137116;28;20094;-69
2023/10/13 15:09:25;;;;;;;15.77;12.50;;;;;;;;;;10134728;28;20048;-70
2023/10/13 15:14:22;;;;;;;19.73;13.93;;;;;;;;;;10137165;28;20052;-70
2023/10/13 15:19:16;;;;;;;20.67;12.98;;;;;;;;;;10137624;28;20041;-70
2023/10/13 15:24:14;;;;;;;21.65;12.73;;;;;;;;;;10136510;28;20064;-70
2023/10/13 15:29:12;;;;;;;19.02;14.15;;;;;;;;;;10136938;28;20055;-70
2023/10/13 15:34:12;;;;;;;23.25;12.80;;;;;;;;;;10136456;28;20506;-70
2023/10/13 15:39:08;;;;;;;18.63;11.70;;;;;;;;;;10136417;28;20525;-70
2023/10/13 15:44:01;;;;;;;30.45;13.30;;;;;;;;;;10137157;28;20080;-70
2023/10/13 15:48:54;;;;;;;16.02;11.95;;;;;;;;;;10136144;28;20995;-68
2023/10/13 15:54:14;;;;;;;27.60;13.13;;;;;;;;;;10137402;28;20121;-70
2023/10/13 15:59:10;;;;;;;17.08;12.25;;;;;;;;;;10138345;28;20040;-70
2023/10/13 16:04:13;;;;;;;16.98;11.38;;;;;;;;;;10134096;28;20053;-68
2023/10/13 16:09:13;;;;;;;20.67;10.90;;;;;;;;;;10137429;28;20094;-69
2023/10/13 16:14:10;;;;;;;19.38;12.50;;;;;;;;;;10135901;28;20040;-69
2023/10/13 16:19:06;;;;;;;23.77;11.93;;;;;;;;;;10137685;28;20048;-68
2023/10/13 16:23:58;;;;;;;17.80;11.43;;;;;;;;;;10136781;28;20449;-67
2023/10/13 16:28:53;;;;;;;17.58;10.48;;;;;;;;;;10135980;28;20053;-67
2023/10/13 16:33:45;;;;;;;20.25;15.07;;;;;;;;;;10136323;28;20041;-69
2023/10/13 16:38:38;;;;;;;18.88;12.48;;;;;;;;;;10138647;28;20053;-68
2023/10/13 16:43:33;;;;;;;24.50;11.90;;;;;;;;;;10134314;28;20053;-67
2023/10/13 16:48:26;;;;;;;22.45;11.75;;;;;;;;;;10131505;28;20044;-69
2023/10/13 16:53:20;;;;;;;19.30;11.45;;;;;;;;;;10131685;28;20049;-69
2023/10/13 16:58:12;;;;;;;18.52;12.30;;;;;;;;;;10143306;28;20040;-69
2023/10/13 17:03:06;;;;;;;18.38;11.38;;;;;;;;;;10145082;28;20140;-70
2023/10/13 17:07:58;;;;;;;20.23;11.80;;;;;;;;;;10145529;28;20425;-70
2023/10/13 17:12:54;;;;;;;27.17;13.07;;;;;;;;;;10146644;28;20127;-70
2023/10/13 17:17:46;;;;;;;20.05;13.15;;;;;;;;;;10147137;28;20148;-70
2023/10/13 17:22:40;;;;;;;13.10;11.27;;;;;;;;;;10145945;28;20099;-68
2023/10/13 17:27:32;;;;;;;14.65;10.90;;;;;;;;;;10144537;28;20056;-70
2023/10/13 17:32:24;;;;;;;16.20;12.80;;;;;;;;;;10124643;28;20041;-70
2023/10/13 17:37:16;;;;;;;19.83;12.23;;;;;;;;;;10141936;28;20053;-67
2023/10/13 17:42:11;;;;;;;19.10;12.43;;;;;;;;;;10143567;28;20037;-70
2023/10/13 17:47:04;;;;;;;14.38;12.43;;;;;;;;;;10141264;28;20044;-70
2023/10/13 17:51:55;;;;;;;20.67;13.73;;;;;;;;;;10139228;28;20163;-70
2023/10/13 17:56:47;;;;;;;18.35;12.52;;;;;;;;;;10141870;28;20112;-69
2023/10/13 18:01:39;;;;;;;16.70;13.27;;;;;;;;;;10139683;28;20053;-68
2023/10/13 18:06:31;;;;;;;24.35;13.15;;;;;;;;;;10143523;28;20078;-70
2023/10/13 18:11:24;;;;;;;17.63;12.13;;;;;;;;;;10140748;28;20052;-70
2023/10/13 18:16:17;;;;;;;18.35;11.55;;;;;;;;;;10140662;28;20141;-70
2023/10/13 18:21:11;;;;;;;19.67;11.82;;;;;;;;;;10136358;28;20127;-70
2023/10/13 18:26:04;;;;;;;23.38;13.63;;;;;;;;;;10143433;28;20079;-70
2023/10/13 18:30:57;;;;;;;17.77;13.23;;;;;;;;;;10143930;28;20055;-68
2023/10/13 18:35:50;;;;;;;18.92;12.98;;;;;;;;;;10140867;28;20059;-70
2023/10/13 18:40:42;;;;;;;16.15;13.73;;;;;;;;;;10136547;28;20205;-70
2023/10/13 18:45:34;;;;;;;16.67;13.65;;;;;;;;;;10138648;28;20102;-70
2023/10/13 18:50:26;;;;;;;21.77;12.65;;;;;;;;;;10140307;28;20055;-71
2023/10/13 18:55:18;;;;;;;14.52;13.02;;;;;;;;;;10143635;28;20048;-68
2023/10/13 19:00:22;;;;;;;17.30;14.32;;;;;;;;;;10141537;28;20045;-71
2023/10/13 19:05:15;;;;;;;17.20;12.95;;;;;;;;;;10111640;28;20045;-70
2023/10/13 19:10:16;;;;;;;15.35;11.20;;;;;;;;;;10099419;28;20543;-71
2023/10/13 19:15:08;;;;;;;10.13;8.77;;;;;;;;;;10101506;28;20072;-71
2023/10/13 19:20:03;;;;;;;10.05;9.05;;;;;;;;;;10102091;28;20049;-71
2023/10/13 19:24:55;;;;;;;10.63;9.50;;;;;;;;;;10102800;28;20095;-70
2023/10/13 19:29:48;;;;;;;10.88;7.00;;;;;;;;;;10101433;28;20051;-70
2023/10/13 19:34:41;;;;;;;8.57;7.25;;;;;;;;;;10101362;28;20094;-70
2023/10/13 19:39:40;;;;;;;8.68;7.22;;;;;;;;;;10101041;28;20095;-71
2023/10/13 19:44:33;;;;;;;6.28;5.38;;;;;;;;;;10101509;28;20497;-71
2023/10/13 19:49:25;;;;;;;9.63;6.72;;;;;;;;;;10105320;28;20048;-71
2023/10/13 19:54:17;;;;;;;16.85;7.22;;;;;;;;;;10102328;28;20371;-71
2023/10/13 19:59:09;;;;;;;7.85;6.13;;;;;;;;;;10099464;28;20041;-71
2023/10/13 20:04:06;;;;;;;10.18;6.32;;;;;;;;;;10124806;28;20163;-71
2023/10/13 20:09:08;;;;;;;10.23;6.18;;;;;;;;;;10140057;28;20389;-71
2023/10/13 20:14:01;;;;;;;7.10;5.10;;;;;;;;;;10140689;28;20044;-70
2023/10/13 20:18:54;;;;;;;6.78;4.72;;;;;;;;;;10140458;28;20036;-69
2023/10/13 20:23:46;;;;;;;8.48;4.25;;;;;;;;;;10138100;28;20385;-70
2023/10/13 20:28:39;;;;;;;6.03;4.30;;;;;;;;;;10135171;28;20040;-70
2023/10/13 20:33:34;;;;;;;8.55;4.18;;;;;;;;;;10140152;28;20052;-71
2023/10/13 20:38:28;;;;;;;6.13;5.55;;;;;;;;;;10142686;28;20109;-69
2023/10/13 20:43:20;;;;;;;5.90;4.70;;;;;;;;;;10144621;28;20105;-71
2023/10/13 20:48:12;;;;;;;5.38;3.90;;;;;;;;;;10144221;28;20052;-71
2023/10/13 20:53:03;;;;;;;8.27;4.35;;;;;;;;;;10144486;28;20044;-69
2023/10/13 20:57:56;;;;;;;6.60;5.57;;;;;;;;;;10143513;28;20044;-70
2023/10/13 21:02:55;;;;;;;6.88;4.80;;;;;;;;;;10147767;28;20077;-70
2023/10/13 21:07:49;;;;;;;6.20;4.53;;;;;;;;;;10147595;28;20860;-70
2023/10/13 21:12:48;;;;;;;6.40;3.88;;;;;;;;;;10146581;28;20102;-70
2023/10/13 21:17:49;;;;;;;8.25;4.40;;;;;;;;;;10144873;28;20499;-70
2023/10/13 21:22:46;;;;;;;5.10;4.45;;;;;;;;;;10145197;28;20072;-71
2023/10/13 21:27:38;;;;;;;6.57;3.95;;;;;;;;;;10145380;28;20059;-71
2023/10/13 21:32:31;;;;;;;7.90;3.72;;;;;;;;;;10142746;28;20443;-70
2023/10/13 21:37:24;;;;;;;8.38;3.78;;;;;;;;;;10144719;28;20501;-69
2023/10/13 21:42:16;;;;;;;5.85;4.03;;;;;;;;;;10145510;28;20122;-71
2023/10/13 21:47:08;;;;;;;9.48;4.63;;;;;;;;;;10145820;28;20083;-70
2023/10/13 21:52:00;;;;;;;6.30;3.95;;;;;;;;;;10144479;28;20037;-71
2023/10/13 21:56:52;;;;;;;9.82;4.60;;;;;;;;;;10143868;28;20033;-70
2023/10/13 22:01:45;;;;;;;6.72;4.10;;;;;;;;;;10143237;28;20056;-70
2023/10/13 22:06:38;;;;;;;7.47;4.20;;;;;;;;;;10145510;28;20094;-71
2023/10/13 22:11:35;;;;;;;8.82;5.65;;;;;;;;;;10145069;28;20028;-69
2023/10/13 22:16:27;;;;;;;7.32;3.92;;;;;;;;;;10144817;28;20358;-70
2023/10/13 22:21:19;;;;;;;7.05;4.13;;;;;;;;;;10144777;28;20048;-71
2023/10/13 22:26:12;;;;;;;5.78;4.03;;;;;;;;;;10145514;28;20040;-70
2023/10/13 22:31:07;;;;;;;6.78;4.03;;;;;;;;;;10144200;28;20036;-70
2023/10/13 22:35:59;;;;;;;6.22;4.22;;;;;;;;;;10144107;28;20041;-71
2023/10/13 22:40:51;;;;;;;6.18;4.60;;;;;;;;;;10143591;28;20040;-71
2023/10/13 22:45:43;;;;;;;8.93;4.88;;;;;;;;;;10144875;28;20052;-70
2023/10/13 22:50:35;;;;;;;5.35;3.60;;;;;;;;;;10144594;28;20044;-71
2023/10/13 22:55:27;;;;;;;7.40;4.15;;;;;;;;;;10142838;28;20095;-71
2023/10/13 23:00:25;;;;;;;8.50;4.50;;;;;;;;;;10142814;28;20343;-70
2023/10/13 23:05:31;;;;;;;5.70;4.22;;;;;;;;;;10142642;28;20098;-71
2023/10/13 23:10:45;;;;;;;6.65;4.63;;;;;;;;;;10140429;28;20072;-71
2023/10/13 23:15:36;;;;;;;7.07;4.80;;;;;;;;;;10140643;28;20036;-71
2023/10/13 23:20:29;;;;;;;7.05;3.47;;;;;;;;;;10141343;28;20083;-71
2023/10/13 23:25:21;;;;;;;4.18;3.55;;;;;;;;;;10142189;28;20090;-71
2023/10/13 23:30:13;;;;;;;6.35;3.72;;;;;;;;;;10142138;28;20131;-70
2023/10/13 23:35:05;;;;;;;8.63;4.72;;;;;;;;;;10137861;28;20142;-71
2023/10/13 23:40:00;;;;;;;7.95;3.70;;;;;;;;;;10135894;28;20055;-69
2023/10/13 23:45:06;;;;;;;5.75;4.13;;;;;;;;;;10140187;28;20048;-71
2023/10/13 23:49:58;;;;;;;4.72;4.13;;;;;;;;;;10137358;28;22141;-71
2023/10/13 23:54:55;;;;;;;8.75;4.18;;;;;;;;;;10136301;28;20036;-71
2023/10/13 23:59:54;;;;;;;8.25;4.18;;;;;;;;;;10137965;28;20048;-71
